createdAt,value
2022-08-03T00:01:38.179Z,3.53
2022-08-03T00:04:07.820Z,3.97
2022-08-03T00:06:37.165Z,3.40
2022-08-03T00:09:06.846Z,3.30
2022-08-03T00:11:33.367Z,3.47
2022-08-03T00:13:59.541Z,3.72
2022-08-03T00:16:26.538Z,3.50
2022-08-03T00:18:53.154Z,3.40
2022-08-03T00:21:19.348Z,3.60
2022-08-03T00:23:51.301Z,3.70
2022-08-03T00:26:18.189Z,3.40
2022-08-03T00:28:44.374Z,3.50
2022-08-03T00:31:13.500Z,3.70
2022-08-03T00:33:58.229Z,3.70
2022-08-03T00:36:26.134Z,3.70
2022-08-03T00:38:52.323Z,3.33
2022-08-03T00:41:18.467Z,3.60
2022-08-03T00:43:45.059Z,3.33
2022-08-03T00:46:11.213Z,3.50
2022-08-03T00:48:37.408Z,3.20
2022-08-03T00:51:03.716Z,3.42
2022-08-03T00:53:30.366Z,3.63
2022-08-03T00:55:56.562Z,3.53
2022-08-03T00:58:24.250Z,3.47
2022-08-03T01:00:50.484Z,3.65
2022-08-03T01:03:16.841Z,4.18
2022-08-03T01:06:38.521Z,3.50
2022-08-03T01:09:23.023Z,3.83
2022-08-03T01:12:15.894Z,4.18
2022-08-03T01:14:49.302Z,3.65
2022-08-03T01:17:23.304Z,3.90
2022-08-03T01:19:56.354Z,3.60
2022-08-03T01:23:00.760Z,3.50
2022-08-03T01:26:00.898Z,3.70
2022-08-03T01:28:54.552Z,3.45
2022-08-03T01:31:26.140Z,4.10
2022-08-03T01:33:58.978Z,3.72
2022-08-03T01:36:32.422Z,3.78
2022-08-03T01:39:01.872Z,3.10
2022-08-03T01:41:35.285Z,3.70
2022-08-03T01:44:28.331Z,3.08
2022-08-03T01:46:51.447Z,3.88
2022-08-03T01:49:18.407Z,3.60
2022-08-03T01:52:03.301Z,3.50
2022-08-03T01:54:32.845Z,3.45
2022-08-03T01:56:59.803Z,3.10
2022-08-03T01:59:28.001Z,3.25
2022-08-03T02:02:27.740Z,3.50
2022-08-03T02:04:43.953Z,3.33
2022-08-03T02:07:10.589Z,3.50
2022-08-03T02:09:44.398Z,3.53
2022-08-03T02:12:12.330Z,3.38
2022-08-03T02:14:40.990Z,3.95
2022-08-03T02:17:07.942Z,3.25
2022-08-03T02:19:35.937Z,3.10
2022-08-03T02:22:04.939Z,2.90
2022-08-03T02:24:32.503Z,3.83
2022-08-03T02:27:00.107Z,3.53
2022-08-03T02:29:39.689Z,3.30
2022-08-03T02:32:14.390Z,3.45
2022-08-03T02:34:46.209Z,3.42
2022-08-03T02:37:13.596Z,3.65
2022-08-03T02:39:41.089Z,3.63
2022-08-03T02:42:12.698Z,3.22
2022-08-03T02:44:40.446Z,3.40
2022-08-03T02:47:10.975Z,3.08
2022-08-03T02:49:50.849Z,3.45
2022-08-03T02:52:21.642Z,3.25
2022-08-03T02:54:51.261Z,3.47
2022-08-03T02:57:20.023Z,3.40
2022-08-03T02:59:47.104Z,3.40
2022-08-03T03:02:15.879Z,3.17
2022-08-03T03:04:58.829Z,4.03
2022-08-03T03:07:31.389Z,3.15
2022-08-03T03:10:07.195Z,3.20
2022-08-03T03:12:33.693Z,3.28
2022-08-03T03:14:59.855Z,3.50
2022-08-03T03:17:26.976Z,3.33
2022-08-03T03:19:54.287Z,3.28
2022-08-03T03:22:22.584Z,3.65
2022-08-03T03:24:51.813Z,3.40
2022-08-03T03:27:18.383Z,3.60
2022-08-03T03:29:45.006Z,4.30
2022-08-03T03:32:11.162Z,3.72
2022-08-03T03:34:37.649Z,3.38
2022-08-03T03:37:04.015Z,3.00
2022-08-03T03:39:30.212Z,3.35
2022-08-03T03:41:57.458Z,3.50
2022-08-03T03:44:27.977Z,3.67
2022-08-03T03:46:54.142Z,3.88
2022-08-03T03:49:21.259Z,3.05
2022-08-03T03:51:47.487Z,3.50
2022-08-03T03:54:13.682Z,3.70
2022-08-03T03:56:39.943Z,3.20
2022-08-03T03:59:06.321Z,3.85
2022-08-03T04:01:32.650Z,3.60
2022-08-03T04:04:18.771Z,3.60
2022-08-03T04:07:03.994Z,3.60
2022-08-03T04:09:49.766Z,3.85
2022-08-03T04:14:44.758Z,3.47
2022-08-03T04:17:13.693Z,3.80
2022-08-03T04:19:47.848Z,3.45
2022-08-03T04:22:18.816Z,3.53
2022-08-03T04:24:48.842Z,3.30
2022-08-03T04:27:19.446Z,3.90
2022-08-03T04:29:49.374Z,3.65
2022-08-03T04:32:17.488Z,4.50
2022-08-03T04:34:44.366Z,3.88
2022-08-03T04:37:13.042Z,4.35
2022-08-03T04:39:42.738Z,3.85
2022-08-03T04:42:13.174Z,3.60
2022-08-03T04:44:43.101Z,4.68
2022-08-03T04:47:09.249Z,4.00
2022-08-03T04:49:37.994Z,4.32
2022-08-03T04:52:07.321Z,4.07
2022-08-03T04:54:45.830Z,4.05
2022-08-03T04:57:22.348Z,4.35
2022-08-03T04:59:56.640Z,4.18
2022-08-03T05:02:27.353Z,4.00
2022-08-03T05:04:53.532Z,4.15
2022-08-03T05:07:24.873Z,3.85
2022-08-03T05:09:52.808Z,5.13
2022-08-03T05:12:23.932Z,4.35
2022-08-03T05:14:50.089Z,4.28
2022-08-03T05:17:16.269Z,4.57
2022-08-03T05:19:42.427Z,4.53
2022-08-03T05:22:08.583Z,4.32
2022-08-03T05:24:35.160Z,4.30
2022-08-03T05:27:01.302Z,4.13
2022-08-03T05:29:27.502Z,4.43
2022-08-03T05:31:53.663Z,4.50
2022-08-03T05:34:19.865Z,4.43
2022-08-03T05:36:46.023Z,4.55
2022-08-03T05:39:12.180Z,4.05
2022-08-03T05:41:38.313Z,4.38
2022-08-03T05:44:04.809Z,4.68
2022-08-03T05:46:30.964Z,4.43
2022-08-03T05:48:57.271Z,4.88
2022-08-03T05:51:23.451Z,4.68
2022-08-03T05:53:49.620Z,4.15
2022-08-03T05:56:16.809Z,5.90
2022-08-03T05:58:47.833Z,4.80
2022-08-03T06:01:15.596Z,6.47
2022-08-03T06:03:41.835Z,5.47
2022-08-03T06:06:08.440Z,4.63
2022-08-03T06:08:35.513Z,4.97
2022-08-03T06:11:01.658Z,4.47
2022-08-03T06:13:27.916Z,5.03
2022-08-03T06:15:54.146Z,5.47
2022-08-03T06:18:20.351Z,4.57
2022-08-03T06:20:47.169Z,3.83
2022-08-03T06:23:16.244Z,4.10
2022-08-03T06:25:44.045Z,3.60
2022-08-03T06:28:19.061Z,3.75
2022-08-03T06:30:55.164Z,3.50
2022-08-03T06:33:21.318Z,3.30
2022-08-03T06:35:47.503Z,3.25
2022-08-03T06:38:13.655Z,3.47
2022-08-03T06:40:42.627Z,4.30
2022-08-03T06:43:12.683Z,3.30
2022-08-03T06:45:40.307Z,3.40
2022-08-03T06:48:09.177Z,3.22
2022-08-03T06:50:37.223Z,3.33
2022-08-03T06:53:04.964Z,3.53
2022-08-03T06:55:32.325Z,3.10
2022-08-03T06:58:00.189Z,4.07
2022-08-03T07:00:30.897Z,3.22
2022-08-03T07:02:58.387Z,3.78
2022-08-03T07:05:24.887Z,3.20
2022-08-03T07:07:51.088Z,3.10
2022-08-03T07:10:17.252Z,3.10
2022-08-03T07:12:52.799Z,3.40
2022-08-03T07:15:54.161Z,3.10
2022-08-03T07:18:09.471Z,3.63
2022-08-03T07:20:35.668Z,2.40
2022-08-03T07:23:01.820Z,2.53
2022-08-03T07:25:27.996Z,2.50
2022-08-03T07:27:54.133Z,3.17
2022-08-03T07:30:22.549Z,2.97
2022-08-03T07:32:50.228Z,3.10
2022-08-03T07:35:22.753Z,2.75
2022-08-03T07:37:54.205Z,3.17
2022-08-03T07:40:21.225Z,2.75
2022-08-03T07:42:47.447Z,2.70
2022-08-03T07:45:18.181Z,2.63
2022-08-03T07:47:44.325Z,3.35
2022-08-03T07:50:20.015Z,3.00
2022-08-03T07:52:53.202Z,3.30
2022-08-03T07:55:21.214Z,2.40
2022-08-03T07:57:48.215Z,2.33
2022-08-03T08:00:19.283Z,2.00
2022-08-03T08:02:45.930Z,2.45
2022-08-03T08:05:12.702Z,2.50
2022-08-03T08:07:39.690Z,2.10
2022-08-03T08:10:07.880Z,2.35
2022-08-03T08:12:34.023Z,2.47
2022-08-03T08:15:00.217Z,2.25
2022-08-03T08:17:26.390Z,2.15
2022-08-03T08:19:53.293Z,2.33
2022-08-03T08:22:28.055Z,1.83
2022-08-03T08:24:57.001Z,2.00
2022-08-03T08:27:23.213Z,1.98
2022-08-03T08:29:54.222Z,2.00
2022-08-03T08:32:22.569Z,2.35
2022-08-03T08:34:48.735Z,1.90
2022-08-03T08:37:15.091Z,2.08
2022-08-03T08:39:41.240Z,2.17
2022-08-03T08:42:07.391Z,1.90
2022-08-03T08:44:33.578Z,1.77
2022-08-03T08:47:03.207Z,2.05
2022-08-03T08:49:32.901Z,2.25
2022-08-03T08:52:01.635Z,2.80
2022-08-03T08:54:29.673Z,1.95
2022-08-03T08:56:57.371Z,2.08
2022-08-03T08:59:25.168Z,2.20
2022-08-03T09:01:51.498Z,1.88
2022-08-03T09:04:17.912Z,2.25
2022-08-03T09:06:58.663Z,1.80
2022-08-03T09:10:10.648Z,2.05
2022-08-03T09:12:40.864Z,2.13
2022-08-03T09:15:26.056Z,1.85
2022-08-03T09:17:56.735Z,1.90
2022-08-03T09:20:24.674Z,2.60
2022-08-03T09:23:51.583Z,1.85
2022-08-03T09:26:01.814Z,2.33
2022-08-03T09:28:56.282Z,1.77
2022-08-03T09:31:33.150Z,1.95
2022-08-03T09:34:02.671Z,1.88
2022-08-03T09:36:46.503Z,1.90
2022-08-03T09:39:15.236Z,1.88
2022-08-03T09:41:44.500Z,1.92
2022-08-03T09:44:24.281Z,1.90
2022-08-03T09:46:55.293Z,2.30
2022-08-03T09:49:21.579Z,2.00
2022-08-03T09:52:32.257Z,1.77
2022-08-03T09:54:34.638Z,2.10
2022-08-03T09:57:01.269Z,1.73
2022-08-03T09:59:29.743Z,2.08
2022-08-03T10:01:57.600Z,1.85
2022-08-03T10:04:24.526Z,1.92
2022-08-03T10:07:10.840Z,2.10
2022-08-03T10:09:38.132Z,2.00
2022-08-03T10:12:12.534Z,1.80
2022-08-03T10:14:39.855Z,1.73
2022-08-03T10:17:06.155Z,1.80
2022-08-03T10:19:33.384Z,1.85
2022-08-03T10:22:10.459Z,1.55
2022-08-03T10:24:39.094Z,2.10
2022-08-03T10:27:09.899Z,1.92
2022-08-03T10:29:42.790Z,2.08
2022-08-03T10:32:32.998Z,1.70
2022-08-03T10:35:12.392Z,2.05
2022-08-03T10:38:03.287Z,1.83
2022-08-03T10:40:49.366Z,1.92
2022-08-03T10:43:23.095Z,1.80
2022-08-03T10:45:49.760Z,1.88
2022-08-03T10:48:17.631Z,1.70
2022-08-03T10:50:44.435Z,1.70
2022-08-03T10:53:10.698Z,1.42
2022-08-03T10:56:01.771Z,1.60
2022-08-03T10:58:37.047Z,1.70
2022-08-03T11:01:08.342Z,1.55
2022-08-03T11:03:55.185Z,1.52
2022-08-03T11:06:24.679Z,1.85
2022-08-03T11:09:10.739Z,1.58
2022-08-03T11:11:41.988Z,1.58
2022-08-03T11:14:11.434Z,1.70
2022-08-03T11:16:45.261Z,1.50
2022-08-03T11:19:13.708Z,1.43
2022-08-03T11:21:51.840Z,1.55
2022-08-03T11:24:36.517Z,1.45
2022-08-03T11:27:14.958Z,1.38
2022-08-03T11:29:57.451Z,1.50
2022-08-03T11:32:48.306Z,1.55
2022-08-03T11:35:33.812Z,1.33
2022-08-03T11:38:07.210Z,1.55
2022-08-03T11:40:34.787Z,1.60
2022-08-03T11:43:01.340Z,1.30
2022-08-03T11:45:28.144Z,1.30
2022-08-03T11:47:55.720Z,1.40
2022-08-03T11:50:22.593Z,1.33
2022-08-03T11:52:49.819Z,1.42
2022-08-03T15:12:16.943Z,1.48
2022-08-03T15:14:43.158Z,1.30
2022-08-03T15:17:09.614Z,1.48
2022-08-03T15:20:00.218Z,1.85
2022-08-03T15:22:25.004Z,1.40
2022-08-03T15:25:00.612Z,1.30
2022-08-03T15:27:26.839Z,1.60
2022-08-03T15:30:06.813Z,1.40
2022-08-03T15:32:36.566Z,1.27
2022-08-03T15:35:02.787Z,1.30
2022-08-03T15:37:31.612Z,1.60
2022-08-03T15:39:59.009Z,1.10
2022-08-03T15:42:26.761Z,1.00
2022-08-03T15:44:53.940Z,1.20
2022-08-03T15:47:21.084Z,1.13
2022-08-03T15:49:47.531Z,1.60
2022-08-03T15:52:13.692Z,1.10
2022-08-03T15:54:39.883Z,0.95
2022-08-03T15:57:06.138Z,1.00
2022-08-03T15:59:32.331Z,1.00
2022-08-03T16:01:58.715Z,0.95
2022-08-03T16:04:27.524Z,1.00
2022-08-03T16:06:53.709Z,1.00
2022-08-03T16:09:24.039Z,1.10
2022-08-03T16:12:06.233Z,1.25
2022-08-03T16:14:51.962Z,1.17
2022-08-03T16:17:19.047Z,1.20
2022-08-03T16:19:45.380Z,1.10
2022-08-03T16:22:11.528Z,1.10
2022-08-03T16:24:40.474Z,1.13
2022-08-03T16:27:06.769Z,1.20
2022-08-03T16:29:43.971Z,1.20
2022-08-03T16:32:10.903Z,1.15
2022-08-03T16:34:38.535Z,1.10
2022-08-03T16:37:35.317Z,1.00
2022-08-03T16:39:51.769Z,1.30
2022-08-03T16:42:17.922Z,1.23
2022-08-03T16:44:44.165Z,1.20
2022-08-03T16:47:10.322Z,1.20
2022-08-03T16:49:55.396Z,1.10
2022-08-03T16:52:22.770Z,1.45
2022-08-03T16:54:52.718Z,1.00
2022-08-03T16:57:56.280Z,1.13
2022-08-03T17:00:08.701Z,1.10
2022-08-03T17:02:36.214Z,1.63
2022-08-03T17:05:03.039Z,1.10
2022-08-03T17:07:30.392Z,1.60
2022-08-03T17:09:57.354Z,1.10
2022-08-03T17:12:23.511Z,1.17
2022-08-03T17:14:53.579Z,1.00
2022-08-03T17:17:30.059Z,1.00
2022-08-03T17:22:39.276Z,1.10
2022-08-03T17:25:09.607Z,1.30
2022-08-03T17:28:50.237Z,1.42
2022-08-03T17:30:57.165Z,1.30
2022-08-03T17:33:27.059Z,1.20
2022-08-03T17:36:01.878Z,1.30
2022-08-03T17:38:31.908Z,1.60
2022-08-03T17:41:00.986Z,1.27
2022-08-03T17:44:12.800Z,1.30
2022-08-03T17:46:26.658Z,1.42
2022-08-03T17:48:54.167Z,1.50
2022-08-03T17:51:33.593Z,1.42
2022-08-03T17:54:20.019Z,1.30
2022-08-03T17:57:22.062Z,1.40
2022-08-03T18:00:32.828Z,1.77
2022-08-03T18:03:25.339Z,1.80
2022-08-03T18:08:51.044Z,2.00
2022-08-03T18:11:22.902Z,2.33
2022-08-03T18:14:16.048Z,2.10
2022-08-03T18:16:56.477Z,3.00
2022-08-03T18:20:02.734Z,3.90
2022-08-03T18:22:11.313Z,4.45
2022-08-03T18:24:38.424Z,3.83
2022-08-03T18:27:06.562Z,5.90
2022-08-03T18:29:33.792Z,4.80
2022-08-03T18:32:06.805Z,3.70
2022-08-03T18:34:37.228Z,2.63
2022-08-03T18:37:25.165Z,2.03
2022-08-03T18:39:57.864Z,2.58
2022-08-03T18:42:26.326Z,2.78
2022-08-03T18:44:56.442Z,3.58
2022-08-03T18:47:53.140Z,3.75
2022-08-03T18:50:30.824Z,4.05
2022-08-03T18:53:16.247Z,3.40
2022-08-03T18:56:02.228Z,3.08
2022-08-03T18:58:39.737Z,6.30
2022-08-03T19:01:58.128Z,3.60
2022-08-03T19:04:09.570Z,3.20
2022-08-03T19:06:42.170Z,3.35
2022-08-03T19:09:31.930Z,4.50
2022-08-03T19:12:12.431Z,4.00
2022-08-03T19:15:10.534Z,4.00
2022-08-03T19:17:53.713Z,6.43
2022-08-03T19:20:30.840Z,3.15
2022-08-03T19:22:59.339Z,3.13
2022-08-03T19:25:35.036Z,2.90
2022-08-03T19:28:03.871Z,2.60
2022-08-03T19:30:46.478Z,2.88
2022-08-03T19:33:19.785Z,2.53
2022-08-03T19:35:55.640Z,2.67
2022-08-03T19:38:29.313Z,2.80
2022-08-03T19:41:08.578Z,2.63
2022-08-03T19:43:49.368Z,2.40
2022-08-03T19:46:22.396Z,3.15
2022-08-03T19:48:59.287Z,2.72
2022-08-03T19:51:59.048Z,2.60
2022-08-03T19:54:29.339Z,2.60
2022-08-03T19:56:56.447Z,2.80
2022-08-03T19:59:23.585Z,3.10
2022-08-03T20:01:52.972Z,3.50
2022-08-03T20:04:20.969Z,3.42
2022-08-03T20:06:49.769Z,3.70
2022-08-03T20:09:16.558Z,3.50
2022-08-03T20:11:43.739Z,3.35
2022-08-03T20:14:11.813Z,3.67
2022-08-03T20:16:47.499Z,4.55
2022-08-03T20:19:14.754Z,4.10
2022-08-03T20:21:44.994Z,3.80
2022-08-03T20:24:25.185Z,3.65
2022-08-03T20:26:53.522Z,3.80
2022-08-03T20:30:05.429Z,3.80
2022-08-03T20:32:19.075Z,3.75
2022-08-03T20:34:50.695Z,3.40
2022-08-03T20:37:19.374Z,3.33
2022-08-03T20:39:48.329Z,3.38
2022-08-03T20:42:21.460Z,4.75
2022-08-03T20:44:54.246Z,5.47
2022-08-03T20:47:33.856Z,3.53
2022-08-03T20:50:02.785Z,2.90
2022-08-03T20:52:31.559Z,2.95
2022-08-03T20:54:59.303Z,3.08
2022-08-03T20:57:28.693Z,3.40
2022-08-03T21:00:00.645Z,3.33
2022-08-03T21:02:29.520Z,3.20
2022-08-03T21:04:57.932Z,3.35
2022-08-03T21:07:24.402Z,3.58
2022-08-03T21:09:53.106Z,3.25
2022-08-03T21:12:41.683Z,3.83
2022-08-03T21:12:56.699Z,2.10
2022-08-03T21:15:09.664Z,3.53
2022-08-03T21:17:57.950Z,3.15
2022-08-03T21:20:34.572Z,3.60
2022-08-03T21:23:00.952Z,3.67
2022-08-03T21:25:32.691Z,3.75
2022-08-03T21:28:00.710Z,3.80
2022-08-03T21:30:29.762Z,3.50
2022-08-03T21:32:57.960Z,3.63
2022-08-03T21:35:25.259Z,3.22
2022-08-03T21:38:20.840Z,2.90
2022-08-03T21:40:57.064Z,3.42
2022-08-03T21:43:23.308Z,3.22
2022-08-03T21:46:01.943Z,3.30
2022-08-03T21:48:35.162Z,3.42
2022-08-03T21:51:02.652Z,3.65
2022-08-03T21:54:00.289Z,4.30
2022-08-03T21:56:20.523Z,3.42
2022-08-03T21:58:51.406Z,3.70
2022-08-03T22:01:21.154Z,3.30
2022-08-03T22:03:53.103Z,3.50
2022-08-03T22:06:20.742Z,3.40
2022-08-03T22:08:50.102Z,3.45
2022-08-03T22:11:16.620Z,3.00
2022-08-03T22:13:44.429Z,3.58
2022-08-03T22:16:10.979Z,3.85
2022-08-03T22:18:41.568Z,3.35
2022-08-03T22:21:09.976Z,3.28
2022-08-03T22:23:42.202Z,4.10
2022-08-03T22:26:14.006Z,3.90
2022-08-03T22:28:40.444Z,3.50
2022-08-03T22:31:37.619Z,3.55
2022-08-03T22:33:53.856Z,3.75
2022-08-03T22:36:23.082Z,3.78
2022-08-03T22:38:51.542Z,3.75
2022-08-03T22:41:18.679Z,3.70
2022-08-03T22:43:44.957Z,4.43
2022-08-03T22:46:15.550Z,4.40
2022-08-03T22:48:46.534Z,4.70
2022-08-03T22:51:14.293Z,3.97
2022-08-03T22:53:40.779Z,3.88
2022-08-03T22:56:07.814Z,3.95
2022-08-03T22:58:33.971Z,3.80
2022-08-03T23:01:06.808Z,3.58
2022-08-03T23:04:00.030Z,4.20
2022-08-03T23:06:23.933Z,3.78
2022-08-03T23:08:50.497Z,3.58
2022-08-03T23:11:18.399Z,4.00
2022-08-03T23:13:48.354Z,3.53
2022-08-03T23:16:15.872Z,3.80
2022-08-03T23:18:56.046Z,3.83
2022-08-03T23:22:00.470Z,3.67
2022-08-03T23:24:17.736Z,3.70
2022-08-03T23:26:55.760Z,3.20
2022-08-03T23:29:23.257Z,3.22
2022-08-03T23:31:49.659Z,3.90
2022-08-03T23:34:36.081Z,3.38
2022-08-03T23:37:02.369Z,3.10
2022-08-03T23:39:34.896Z,3.20
2022-08-03T23:42:03.031Z,3.15
2022-08-03T23:44:30.990Z,3.40
2022-08-03T23:46:57.151Z,3.22
2022-08-03T23:49:23.302Z,3.30
2022-08-03T23:52:10.226Z,3.20
2022-08-03T23:54:57.086Z,3.83
2022-08-03T23:57:32.695Z,3.30
